sensor_id;sensor_type;location;lat;lon;timestamp;pressure;altitude;pressure_sealevel;temperature;humidity
42761;BME280;31672;47.638;19.026;2024-03-08T00:01:42;100474.25;;;3.87;100.00
42761;BME280;31672;47.638;19.026;2024-03-08T00:06:48;100470.53;;;3.90;100.00
42761;BME280;31672;47.638;19.026;2024-03-08T00:11:51;100471.97;;;3.94;100.00
42761;BME280;31672;47.638;19.026;2024-03-08T00:16:55;100474.38;;;3.97;100.00
42761;BME280;31672;47.638;19.026;2024-03-08T00:21:58;100469.84;;;3.99;100.00
42761;BME280;31672;47.638;19.026;2024-03-08T00:27:02;100476.75;;;4.00;100.00
42761;BME280;31672;47.638;19.026;2024-03-08T00:32:06;100470.19;;;4.06;100.00
42761;BME280;31672;47.638;19.026;2024-03-08T00:37:11;100463.13;;;4.06;100.00
42761;BME280;31672;47.638;19.026;2024-03-08T00:42:14;100466.03;;;4.03;100.00
42761;BME280;31672;47.638;19.026;2024-03-08T00:47:18;100460.63;;;4.05;100.00
42761;BME280;31672;47.638;19.026;2024-03-08T00:52:21;100451.78;;;4.06;100.00
42761;BME280;31672;47.638;19.026;2024-03-08T00:57:26;100448.31;;;4.05;100.00
42761;BME280;31672;47.638;19.026;2024-03-08T01:02:31;100450.81;;;4.07;100.00
42761;BME280;31672;47.638;19.026;2024-03-08T01:07:36;100455.25;;;4.06;100.00
42761;BME280;31672;47.638;19.026;2024-03-08T01:12:40;100449.16;;;4.06;100.00
42761;BME280;31672;47.638;19.026;2024-03-08T01:17:43;100442.34;;;4.03;100.00
42761;BME280;31672;47.638;19.026;2024-03-08T01:22:47;100440.44;;;4.05;100.00
42761;BME280;31672;47.638;19.026;2024-03-08T01:27:51;100442.22;;;4.05;100.00
42761;BME280;31672;47.638;19.026;2024-03-08T01:32:56;100447.34;;;4.06;100.00
42761;BME280;31672;47.638;19.026;2024-03-08T01:38:00;100448.09;;;4.08;100.00
42761;BME280;31672;47.638;19.026;2024-03-08T01:43:21;100441.03;;;4.09;100.00
42761;BME280;31672;47.638;19.026;2024-03-08T01:48:25;100432.53;;;4.05;100.00
42761;BME280;31672;47.638;19.026;2024-03-08T01:53:30;100439.25;;;4.09;100.00
42761;BME280;31672;47.638;19.026;2024-03-08T01:58:34;100434.81;;;4.10;100.00
42761;BME280;31672;47.638;19.026;2024-03-08T02:03:38;100447.72;;;4.13;100.00
42761;BME280;31672;47.638;19.026;2024-03-08T02:08:45;100440.78;;;4.12;100.00
42761;BME280;31672;47.638;19.026;2024-03-08T02:13:49;100435.78;;;4.09;100.00
42761;BME280;31672;47.638;19.026;2024-03-08T02:18:53;100434.81;;;4.10;100.00
42761;BME280;31672;47.638;19.026;2024-03-08T02:23:56;100444.25;;;4.12;100.00
42761;BME280;31672;47.638;19.026;2024-03-08T02:29:01;100442.34;;;4.14;100.00
42761;BME280;31672;47.638;19.026;2024-03-08T02:34:05;100450.59;;;4.10;100.00
42761;BME280;31672;47.638;19.026;2024-03-08T02:39:08;100440.66;;;4.13;100.00
42761;BME280;31672;47.638;19.026;2024-03-08T02:44:13;100441.75;;;4.11;100.00
42761;BME280;31672;47.638;19.026;2024-03-08T02:49:18;100444.25;;;4.12;100.00
42761;BME280;31672;47.638;19.026;2024-03-08T02:54:21;100451.19;;;4.13;100.00
42761;BME280;31672;47.638;19.026;2024-03-08T02:59:25;100445.09;;;4.13;100.00
42761;BME280;31672;47.638;19.026;2024-03-08T03:04:28;100442.34;;;4.14;100.00
42761;BME280;31672;47.638;19.026;2024-03-08T03:09:31;100446.53;;;4.17;100.00
42761;BME280;31672;47.638;19.026;2024-03-08T03:14:37;100454.28;;;4.18;100.00
42761;BME280;31672;47.638;19.026;2024-03-08T03:19:43;100456.81;;;4.20;100.00
42761;BME280;31672;47.638;19.026;2024-03-08T03:24:47;100464.94;;;4.17;100.00
42761;BME280;31672;47.638;19.026;2024-03-08T03:29:50;100461.34;;;4.18;100.00
42761;BME280;31672;47.638;19.026;2024-03-08T03:34:55;100458.84;;;4.16;100.00
42761;BME280;31672;47.638;19.026;2024-03-08T03:39:58;100454.63;;;4.14;100.00
42761;BME280;31672;47.638;19.026;2024-03-08T03:45:02;100469.97;;;4.09;100.00
42761;BME280;31672;47.638;19.026;2024-03-08T03:50:06;100460.03;;;4.01;100.00
42761;BME280;31672;47.638;19.026;2024-03-08T03:55:10;100473.56;;;3.96;100.00
42761;BME280;31672;47.638;19.026;2024-03-08T04:00:15;100465.41;;;3.88;100.00
42761;BME280;31672;47.638;19.026;2024-03-08T04:05:18;100470.91;;;3.85;100.00
42761;BME280;31672;47.638;19.026;2024-03-08T04:10:22;100460.88;;;3.79;100.00
42761;BME280;31672;47.638;19.026;2024-03-08T04:15:25;100472.22;;;3.80;100.00
42761;BME280;31672;47.638;19.026;2024-03-08T04:20:29;100471.25;;;3.81;100.00
42761;BME280;31672;47.638;19.026;2024-03-08T04:25:33;100468.75;;;3.79;100.00
42761;BME280;31672;47.638;19.026;2024-03-08T04:30:37;100469.47;;;3.81;100.00
42761;BME280;31672;47.638;19.026;2024-03-08T04:35:41;100472.09;;;3.81;100.00
42761;BME280;31672;47.638;19.026;2024-03-08T04:40:44;100476.72;;;3.78;100.00
42761;BME280;31672;47.638;19.026;2024-03-08T04:45:48;100476.63;;;3.79;100.00
42761;BME280;31672;47.638;19.026;2024-03-08T04:50:52;100470.63;;;3.77;100.00
42761;BME280;31672;47.638;19.026;2024-03-08T04:55:56;100476.03;;;3.75;100.00
42761;BME280;31672;47.638;19.026;2024-03-08T05:01:01;100471.13;;;3.71;100.00
42761;BME280;31672;47.638;19.026;2024-03-08T05:06:05;100479.00;;;3.71;100.00
42761;BME280;31672;47.638;19.026;2024-03-08T05:11:09;100486.16;;;3.69;100.00
42761;BME280;31672;47.638;19.026;2024-03-08T05:16:12;100482.00;;;3.66;100.00
42761;BME280;31672;47.638;19.026;2024-03-08T05:21:18;100484.84;;;3.63;100.00
42761;BME280;31672;47.638;19.026;2024-03-08T05:26:23;100482.34;;;3.62;100.00
42761;BME280;31672;47.638;19.026;2024-03-08T05:31:27;100491.19;;;3.61;100.00
42761;BME280;31672;47.638;19.026;2024-03-08T05:36:31;100493.19;;;3.57;100.00
42761;BME280;31672;47.638;19.026;2024-03-08T05:41:35;100499.91;;;3.61;100.00
42761;BME280;31672;47.638;19.026;2024-03-08T05:46:39;100501.31;;;3.65;100.00
42761;BME280;31672;47.638;19.026;2024-03-08T05:51:42;100511.25;;;3.62;100.00
42761;BME280;31672;47.638;19.026;2024-03-08T05:56:46;100512.22;;;3.61;100.00
42761;BME280;31672;47.638;19.026;2024-03-08T06:01:51;100520.81;;;3.63;100.00
42761;BME280;31672;47.638;19.026;2024-03-08T06:06:55;100514.84;;;3.61;100.00
42761;BME280;31672;47.638;19.026;2024-03-08T06:12:00;100527.97;;;3.61;100.00
42761;BME280;31672;47.638;19.026;2024-03-08T06:17:05;100525.56;;;3.58;100.00
42761;BME280;31672;47.638;19.026;2024-03-08T06:22:10;100522.72;;;3.61;100.00
42761;BME280;31672;47.638;19.026;2024-03-08T06:27:13;100525.34;;;3.61;100.00
42761;BME280;31672;47.638;19.026;2024-03-08T06:32:17;100532.41;;;3.60;100.00
42761;BME280;31672;47.638;19.026;2024-03-08T06:37:22;100521.88;;;3.60;100.00
42761;BME280;31672;47.638;19.026;2024-03-08T06:42:30;100521.63;;;3.63;100.00
42761;BME280;31672;47.638;19.026;2024-03-08T06:47:38;100533.28;;;3.72;100.00
42761;BME280;31672;47.638;19.026;2024-03-08T06:52:42;100545.81;;;3.80;100.00
42761;BME280;31672;47.638;19.026;2024-03-08T06:57:51;100537.47;;;3.86;100.00
42761;BME280;31672;47.638;19.026;2024-03-08T07:02:54;100538.81;;;3.91;100.00
42761;BME280;31672;47.638;19.026;2024-03-08T07:07:58;100538.47;;;3.96;100.00
42761;BME280;31672;47.638;19.026;2024-03-08T07:13:01;100539.75;;;4.01;100.00
42761;BME280;31672;47.638;19.026;2024-03-08T07:18:05;100534.28;;;4.05;100.00
42761;BME280;31672;47.638;19.026;2024-03-08T07:23:09;100533.31;;;4.06;100.00
42761;BME280;31672;47.638;19.026;2024-03-08T07:28:13;100547.19;;;4.19;100.00
42761;BME280;31672;47.638;19.026;2024-03-08T07:33:17;100546.13;;;4.21;100.00
42761;BME280;31672;47.638;19.026;2024-03-08T07:38:20;100540.25;;;4.29;100.00
42761;BME280;31672;47.638;19.026;2024-03-08T07:43:24;100554.13;;;4.42;100.00
42761;BME280;31672;47.638;19.026;2024-03-08T07:48:27;100554.03;;;4.44;100.00
42761;BME280;31672;47.638;19.026;2024-03-08T07:53:31;100547.69;;;4.46;100.00
42761;BME280;31672;47.638;19.026;2024-03-08T07:58:35;100550.66;;;4.53;100.00
42761;BME280;31672;47.638;19.026;2024-03-08T08:03:39;100552.94;;;4.57;100.00
42761;BME280;31672;47.638;19.026;2024-03-08T08:08:43;100547.81;;;4.56;100.00
42761;BME280;31672;47.638;19.026;2024-03-08T08:13:47;100556.28;;;4.60;100.00
42761;BME280;31672;47.638;19.026;2024-03-08T08:18:51;100551.63;;;4.63;100.00
42761;BME280;31672;47.638;19.026;2024-03-08T08:23:56;100541.44;;;4.70;100.00
42761;BME280;31672;47.638;19.026;2024-03-08T08:28:59;100551.84;;;4.82;100.00
42761;BME280;31672;47.638;19.026;2024-03-08T08:34:03;100553.72;;;4.92;100.00
42761;BME280;31672;47.638;19.026;2024-03-08T08:39:06;100549.41;;;5.02;100.00
42761;BME280;31672;47.638;19.026;2024-03-08T08:44:16;100554.16;;;5.08;100.00
42761;BME280;31672;47.638;19.026;2024-03-08T08:49:21;100551.63;;;5.18;100.00
42761;BME280;31672;47.638;19.026;2024-03-08T08:54:25;100550.31;;;5.23;100.00
42761;BME280;31672;47.638;19.026;2024-03-08T08:59:30;100551.84;;;5.26;100.00
42761;BME280;31672;47.638;19.026;2024-03-08T09:04:34;100549.19;;;5.26;100.00
42761;BME280;31672;47.638;19.026;2024-03-08T09:09:38;100550.44;;;5.22;100.00
42761;BME280;31672;47.638;19.026;2024-03-08T09:14:42;100554.75;;;5.23;100.00
42761;BME280;31672;47.638;19.026;2024-03-08T09:19:49;100551.50;;;5.19;100.00
42761;BME280;31672;47.638;19.026;2024-03-08T09:24:53;100552.09;;;5.23;100.00
42761;BME280;31672;47.638;19.026;2024-03-08T09:29:56;100549.84;;;5.18;100.00
42761;BME280;31672;47.638;19.026;2024-03-08T09:34:59;100541.13;;;5.06;100.00
42761;BME280;31672;47.638;19.026;2024-03-08T09:40:05;100553.44;;;5.17;100.00
42761;BME280;31672;47.638;19.026;2024-03-08T09:45:13;100556.16;;;5.27;100.00
42761;BME280;31672;47.638;19.026;2024-03-08T09:50:19;100547.00;;;5.42;100.00
42761;BME280;31672;47.638;19.026;2024-03-08T09:55:25;100552.22;;;5.53;100.00
42761;BME280;31672;47.638;19.026;2024-03-08T10:00:31;100556.25;;;5.57;100.00
42761;BME280;31672;47.638;19.026;2024-03-08T10:05:35;100555.06;;;5.61;100.00
42761;BME280;31672;47.638;19.026;2024-03-08T10:10:38;100553.56;;;5.69;100.00
42761;BME280;31672;47.638;19.026;2024-03-08T10:15:41;100558.94;;;5.78;100.00
42761;BME280;31672;47.638;19.026;2024-03-08T10:20:45;100555.41;;;5.89;100.00
42761;BME280;31672;47.638;19.026;2024-03-08T10:25:49;100558.53;;;5.94;100.00
42761;BME280;31672;47.638;19.026;2024-03-08T10:30:52;100547.75;;;6.07;100.00
42761;BME280;31672;47.638;19.026;2024-03-08T10:35:56;100545.34;;;6.25;100.00
42761;BME280;31672;47.638;19.026;2024-03-08T10:41:02;100543.56;;;6.35;100.00
42761;BME280;31672;47.638;19.026;2024-03-08T10:51:36;100545.88;;;6.49;100.00
42761;BME280;31672;47.638;19.026;2024-03-08T10:56:41;100539.94;;;6.57;100.00
42761;BME280;31672;47.638;19.026;2024-03-08T11:01:45;100527.75;;;6.75;100.00
42761;BME280;31672;47.638;19.026;2024-03-08T11:06:50;100529.75;;;6.92;100.00
42761;BME280;31672;47.638;19.026;2024-03-08T11:12:19;100530.59;;;7.03;100.00
42761;BME280;31672;47.638;19.026;2024-03-08T11:17:44;100526.69;;;7.07;100.00
42761;BME280;31672;47.638;19.026;2024-03-08T11:22:59;100521.13;;;7.00;100.00
42761;BME280;31672;47.638;19.026;2024-03-08T11:28:18;100515.97;;;6.98;100.00
42761;BME280;31672;47.638;19.026;2024-03-08T11:33:23;100517.50;;;6.91;100.00
42761;BME280;31672;47.638;19.026;2024-03-08T11:38:26;100506.06;;;6.81;100.00
42761;BME280;31672;47.638;19.026;2024-03-08T11:43:33;100508.44;;;6.75;100.00
42761;BME280;31672;47.638;19.026;2024-03-08T11:48:36;100499.09;;;6.70;100.00
42761;BME280;31672;47.638;19.026;2024-03-08T11:53:41;100505.25;;;6.81;100.00
42761;BME280;31672;47.638;19.026;2024-03-08T11:58:56;100504.44;;;6.90;100.00
42761;BME280;31672;47.638;19.026;2024-03-08T12:04:01;100491.91;;;7.02;100.00
42761;BME280;31672;47.638;19.026;2024-03-08T12:09:11;100490.25;;;7.10;100.00
42761;BME280;31672;47.638;19.026;2024-03-08T12:14:16;100493.16;;;7.07;100.00
42761;BME280;31672;47.638;19.026;2024-03-08T12:19:19;100492.19;;;6.98;100.00
42761;BME280;31672;47.638;19.026;2024-03-08T12:24:23;100491.50;;;6.96;100.00
42761;BME280;31672;47.638;19.026;2024-03-08T12:29:27;100476.63;;;6.86;100.00
42761;BME280;31672;47.638;19.026;2024-03-08T12:34:34;100483.00;;;6.74;100.00
42761;BME280;31672;47.638;19.026;2024-03-08T12:39:40;100478.50;;;6.64;100.00
42761;BME280;31672;47.638;19.026;2024-03-08T12:44:47;100477.13;;;6.60;100.00
42761;BME280;31672;47.638;19.026;2024-03-08T12:49:50;100476.44;;;6.68;100.00
42761;BME280;31672;47.638;19.026;2024-03-08T12:54:54;100462.41;;;6.67;100.00
42761;BME280;31672;47.638;19.026;2024-03-08T12:59:58;100469.63;;;6.75;100.00
42761;BME280;31672;47.638;19.026;2024-03-08T13:05:02;100458.38;;;6.73;100.00
42761;BME280;31672;47.638;19.026;2024-03-08T13:10:08;100455.31;;;6.78;100.00
42761;BME280;31672;47.638;19.026;2024-03-08T13:15:12;100450.75;;;6.89;100.00
42761;BME280;31672;47.638;19.026;2024-03-08T13:20:23;100450.47;;;6.92;100.00
42761;BME280;31672;47.638;19.026;2024-03-08T13:25:36;100446.44;;;6.88;100.00
42761;BME280;31672;47.638;19.026;2024-03-08T13:30:42;100447.69;;;6.84;100.00
42761;BME280;31672;47.638;19.026;2024-03-08T13:35:45;100434.03;;;6.69;100.00
42761;BME280;31672;47.638;19.026;2024-03-08T13:40:53;100434.75;;;6.62;100.00
42761;BME280;31672;47.638;19.026;2024-03-08T13:45:57;100440.72;;;6.54;100.00
42761;BME280;31672;47.638;19.026;2024-03-08T13:51:00;100440.38;;;6.48;100.00
42761;BME280;31672;47.638;19.026;2024-03-08T13:56:04;100440.09;;;6.41;100.00
42761;BME280;31672;47.638;19.026;2024-03-08T14:01:09;100444.53;;;6.40;100.00
42761;BME280;31672;47.638;19.026;2024-03-08T14:06:15;100431.78;;;6.36;100.00
42761;BME280;31672;47.638;19.026;2024-03-08T14:11:25;100435.66;;;6.32;100.00
42761;BME280;31672;47.638;19.026;2024-03-08T14:16:29;100432.31;;;6.30;100.00
42761;BME280;31672;47.638;19.026;2024-03-08T14:21:32;100433.16;;;6.30;100.00
42761;BME280;31672;47.638;19.026;2024-03-08T14:26:36;100430.63;;;6.29;100.00
42761;BME280;31672;47.638;19.026;2024-03-08T14:31:41;100428.69;;;6.31;100.00
42761;BME280;31672;47.638;19.026;2024-03-08T14:36:46;100422.88;;;6.37;100.00
42761;BME280;31672;47.638;19.026;2024-03-08T14:41:49;100422.44;;;6.41;100.00
42761;BME280;31672;47.638;19.026;2024-03-08T14:46:56;100417.06;;;6.43;100.00
42761;BME280;31672;47.638;19.026;2024-03-08T14:52:00;100422.78;;;6.48;100.00
42761;BME280;31672;47.638;19.026;2024-03-08T14:57:04;100417.59;;;6.47;100.00
42761;BME280;31672;47.638;19.026;2024-03-08T15:02:10;100415.50;;;6.40;100.00
42761;BME280;31672;47.638;19.026;2024-03-08T15:07:13;100412.44;;;6.35;100.00
42761;BME280;31672;47.638;19.026;2024-03-08T15:12:17;100401.03;;;6.35;100.00
42761;BME280;31672;47.638;19.026;2024-03-08T15:17:20;100409.25;;;6.32;100.00
42761;BME280;31672;47.638;19.026;2024-03-08T15:22:25;100404.22;;;6.29;100.00
42761;BME280;31672;47.638;19.026;2024-03-08T15:27:28;100412.03;;;6.30;100.00
42761;BME280;31672;47.638;19.026;2024-03-08T15:32:32;100403.00;;;6.33;100.00
42761;BME280;31672;47.638;19.026;2024-03-08T15:37:36;100398.00;;;6.30;100.00
42761;BME280;31672;47.638;19.026;2024-03-08T15:42:39;100398.66;;;6.22;100.00
42761;BME280;31672;47.638;19.026;2024-03-08T15:47:44;100415.47;;;6.21;100.00
42761;BME280;31672;47.638;19.026;2024-03-08T15:52:47;100406.97;;;6.17;100.00
42761;BME280;31672;47.638;19.026;2024-03-08T15:57:51;100406.81;;;6.09;100.00
42761;BME280;31672;47.638;19.026;2024-03-08T16:02:54;100408.63;;;6.09;100.00
42761;BME280;31672;47.638;19.026;2024-03-08T16:07:58;100422.22;;;6.04;100.00
42761;BME280;31672;47.638;19.026;2024-03-08T16:13:02;100411.09;;;6.01;100.00
42761;BME280;31672;47.638;19.026;2024-03-08T16:18:07;100412.72;;;5.92;100.00
42761;BME280;31672;47.638;19.026;2024-03-08T16:23:12;100407.44;;;5.92;100.00
42761;BME280;31672;47.638;19.026;2024-03-08T16:28:17;100412.25;;;5.87;100.00
42761;BME280;31672;47.638;19.026;2024-03-08T16:33:22;100403.47;;;5.77;100.00
42761;BME280;31672;47.638;19.026;2024-03-08T16:38:26;100407.34;;;5.73;100.00
42761;BME280;31672;47.638;19.026;2024-03-08T16:43:29;100408.44;;;5.70;100.00
42761;BME280;31672;47.638;19.026;2024-03-08T16:48:33;100412.28;;;5.66;100.00
42761;BME280;31672;47.638;19.026;2024-03-08T16:53:37;100412.03;;;5.69;100.00
42761;BME280;31672;47.638;19.026;2024-03-08T16:58:44;100407.03;;;5.66;100.00
42761;BME280;31672;47.638;19.026;2024-03-08T17:03:48;100400.63;;;5.59;100.00
42761;BME280;31672;47.638;19.026;2024-03-08T17:09:02;100407.56;;;5.60;100.00
42761;BME280;31672;47.638;19.026;2024-03-08T17:14:13;100406.00;;;5.57;100.00
42761;BME280;31672;47.638;19.026;2024-03-08T17:19:17;100407.78;;;5.57;100.00
42761;BME280;31672;47.638;19.026;2024-03-08T17:24:21;100412.25;;;5.56;100.00
42761;BME280;31672;47.638;19.026;2024-03-08T17:29:27;100411.25;;;5.57;100.00
42761;BME280;31672;47.638;19.026;2024-03-08T17:34:31;100421.69;;;5.59;100.00
42761;BME280;31672;47.638;19.026;2024-03-08T17:39:35;100418.22;;;5.58;100.00
42761;BME280;31672;47.638;19.026;2024-03-08T17:44:40;100416.44;;;5.59;100.00
42761;BME280;31672;47.638;19.026;2024-03-08T17:49:45;100418.34;;;5.57;100.00
42761;BME280;31672;47.638;19.026;2024-03-08T17:54:48;100419.16;;;5.57;100.00
42761;BME280;31672;47.638;19.026;2024-03-08T17:59:53;100415.84;;;5.55;100.00
42761;BME280;31672;47.638;19.026;2024-03-08T18:04:56;100416.69;;;5.56;100.00
42761;BME280;31672;47.638;19.026;2024-03-08T18:10:00;100416.81;;;5.54;100.00
42761;BME280;31672;47.638;19.026;2024-03-08T18:15:05;100426.53;;;5.54;100.00
42761;BME280;31672;47.638;19.026;2024-03-08T18:20:09;100431.66;;;5.55;100.00
42761;BME280;31672;47.638;19.026;2024-03-08T18:25:17;100418.34;;;5.57;100.00
42761;BME280;31672;47.638;19.026;2024-03-08T18:30:27;100422.78;;;5.56;100.00
42761;BME280;31672;47.638;19.026;2024-03-08T18:35:31;100421.13;;;5.55;100.00
42761;BME280;31672;47.638;19.026;2024-03-08T18:40:34;100417.25;;;5.59;100.00
42761;BME280;31672;47.638;19.026;2024-03-08T18:45:38;100417.41;;;5.58;100.00
42761;BME280;31672;47.638;19.026;2024-03-08T18:50:42;100402.81;;;5.54;100.00
42761;BME280;31672;47.638;19.026;2024-03-08T18:55:50;100413.22;;;5.55;100.00
42761;BME280;31672;47.638;19.026;2024-03-08T19:00:55;100419.16;;;5.57;100.00
42761;BME280;31672;47.638;19.026;2024-03-08T19:05:58;100415.28;;;5.52;100.00
42761;BME280;31672;47.638;19.026;2024-03-08T19:11:01;100415.84;;;5.55;100.00
42761;BME280;31672;47.638;19.026;2024-03-08T19:16:07;100413.22;;;5.55;100.00
42761;BME280;31672;47.638;19.026;2024-03-08T19:21:17;100404.47;;;5.55;100.00
42761;BME280;31672;47.638;19.026;2024-03-08T19:26:20;100403.50;;;5.56;100.00
42761;BME280;31672;47.638;19.026;2024-03-08T19:31:25;100410.19;;;5.60;100.00
42761;BME280;31672;47.638;19.026;2024-03-08T19:36:28;100403.81;;;5.62;100.00
42761;BME280;31672;47.638;19.026;2024-03-08T19:41:32;100402.00;;;5.63;100.00
42761;BME280;31672;47.638;19.026;2024-03-08T19:46:36;100400.34;;;5.62;100.00
42761;BME280;31672;47.638;19.026;2024-03-08T19:51:44;100403.94;;;5.61;100.00
42761;BME280;31672;47.638;19.026;2024-03-08T19:56:49;100405.47;;;5.63;100.00
42761;BME280;31672;47.638;19.026;2024-03-08T20:01:53;100402.84;;;5.63;100.00
42761;BME280;31672;47.638;19.026;2024-03-08T20:06:56;100403.56;;;5.66;100.00
42761;BME280;31672;47.638;19.026;2024-03-08T20:12:00;100402.28;;;5.60;100.00
42761;BME280;31672;47.638;19.026;2024-03-08T20:17:03;100394.75;;;5.55;100.00
42761;BME280;31672;47.638;19.026;2024-03-08T20:22:08;100403.09;;;5.60;100.00
42761;BME280;31672;47.638;19.026;2024-03-08T20:27:12;100398.09;;;5.57;100.00
42761;BME280;31672;47.638;19.026;2024-03-08T20:32:15;100394.50;;;5.58;100.00
42761;BME280;31672;47.638;19.026;2024-03-08T20:37:23;100388.13;;;5.61;100.00
42761;BME280;31672;47.638;19.026;2024-03-08T20:42:27;100389.63;;;5.54;100.00
42761;BME280;31672;47.638;19.026;2024-03-08T20:47:32;100386.72;;;5.57;100.00
42761;BME280;31672;47.638;19.026;2024-03-08T20:52:43;100391.44;;;5.53;100.00
42761;BME280;31672;47.638;19.026;2024-03-08T20:57:46;100388.50;;;5.56;100.00
42761;BME280;31672;47.638;19.026;2024-03-08T21:02:53;100385.03;;;5.56;100.00
42761;BME280;31672;47.638;19.026;2024-03-08T21:07:56;100380.16;;;5.51;100.00
42761;BME280;31672;47.638;19.026;2024-03-08T21:13:01;100384.59;;;5.51;100.00
42761;BME280;31672;47.638;19.026;2024-03-08T21:18:05;100378.38;;;5.52;100.00
42761;BME280;31672;47.638;19.026;2024-03-08T21:23:09;100370.88;;;5.47;100.00
42761;BME280;31672;47.638;19.026;2024-03-08T21:28:15;100366.56;;;5.46;100.00
42761;BME280;31672;47.638;19.026;2024-03-08T21:33:22;100370.59;;;5.50;100.00
42761;BME280;31672;47.638;19.026;2024-03-08T21:38:26;100359.34;;;5.48;100.00
42761;BME280;31672;47.638;19.026;2024-03-08T21:43:29;100357.28;;;5.52;100.00
42761;BME280;31672;47.638;19.026;2024-03-08T21:48:36;100352.28;;;5.49;100.00
42761;BME280;31672;47.638;19.026;2024-03-08T21:53:40;100363.50;;;5.51;100.00
42761;BME280;31672;47.638;19.026;2024-03-08T21:58:43;100352.41;;;5.47;100.00
42761;BME280;31672;47.638;19.026;2024-03-08T22:03:48;100352.28;;;5.49;100.00
42761;BME280;31672;47.638;19.026;2024-03-08T22:08:53;100360.03;;;5.50;100.00
42761;BME280;31672;47.638;19.026;2024-03-08T22:13:56;100342.25;;;5.43;100.00
42761;BME280;31672;47.638;19.026;2024-03-08T22:19:00;100356.72;;;5.48;100.00
42761;BME280;31672;47.638;19.026;2024-03-08T22:24:03;100355.88;;;5.48;100.00
42761;BME280;31672;47.638;19.026;2024-03-08T22:29:07;100347.97;;;5.48;100.00
42761;BME280;31672;47.638;19.026;2024-03-08T22:34:11;100348.81;;;5.48;100.00
42761;BME280;31672;47.638;19.026;2024-03-08T22:39:15;100341.88;;;5.47;100.00
42761;BME280;31672;47.638;19.026;2024-03-08T22:44:21;100333.22;;;5.45;100.00
42761;BME280;31672;47.638;19.026;2024-03-08T22:49:25;100338.25;;;5.48;100.00
42761;BME280;31672;47.638;19.026;2024-03-08T22:54:31;100332.28;;;5.46;100.00
42761;BME280;31672;47.638;19.026;2024-03-08T22:59:35;100334.22;;;5.44;100.00
42761;BME280;31672;47.638;19.026;2024-03-08T23:04:39;100333.50;;;5.42;100.00
42761;BME280;31672;47.638;19.026;2024-03-08T23:09:42;100341.88;;;5.47;100.00
42761;BME280;31672;47.638;19.026;2024-03-08T23:14:46;100342.84;;;5.46;100.00
42761;BME280;31672;47.638;19.026;2024-03-08T23:19:49;100334.78;;;5.48;100.00
42761;BME280;31672;47.638;19.026;2024-03-08T23:24:59;100342.56;;;5.49;100.00
42761;BME280;31672;47.638;19.026;2024-03-08T23:30:03;100341.88;;;5.47;100.00
42761;BME280;31672;47.638;19.026;2024-03-08T23:35:07;100339.22;;;5.47;100.00
42761;BME280;31672;47.638;19.026;2024-03-08T23:40:18;100340.91;;;5.48;100.00
42761;BME280;31672;47.638;19.026;2024-03-08T23:45:22;100338.25;;;5.48;100.00
42761;BME280;31672;47.638;19.026;2024-03-08T23:50:28;100333.38;;;5.44;100.00
42761;BME280;31672;47.638;19.026;2024-03-08T23:55:37;100334.22;;;5.44;100.00
